Time;durP1;ratioP1;P1;durP2;ratioP2;P2;SDS_P1;SDS_P2;PMS_P1;PMS_P2;Temp;Humidity;BMP_temperature;BMP_pressure;BME280_temperature;BME280_humidity;BME280_pressure;Samples;Min_cycle;Max_cycle;Signal;HPM_P1;HPM_P2
2022/07/25 00:00:08;;;;;;;11.70;7.88;;;;;;;;;;5054247;28;20032;-68
2022/07/25 00:02:34;;;;;;;12.48;8.07;;;;;;;;;;5053674;28;20049;-67
2022/07/25 00:05:01;;;;;;;11.02;7.90;;;;;;;;;;5053956;28;20463;-68
2022/07/25 00:07:27;;;;;;;13.10;8.30;;;;;;;;;;5054208;28;20031;-68
2022/07/25 00:09:53;;;;;;;12.00;8.68;;;;;;;;;;5053636;28;20062;-66
2022/07/25 00:12:20;;;;;;;10.18;7.95;;;;;;;;;;5052591;28;20036;-68
2022/07/25 00:14:47;;;;;;;12.07;8.38;;;;;;;;;;5053765;28;20068;-68
2022/07/25 00:17:13;;;;;;;13.80;8.00;;;;;;;;;;5053079;28;20068;-67
2022/07/25 00:19:39;;;;;;;13.13;8.45;;;;;;;;;;5052633;28;20031;-69
2022/07/25 00:22:05;;;;;;;11.98;8.23;;;;;;;;;;5051595;28;20060;-68
2022/07/25 00:24:31;;;;;;;10.52;8.73;;;;;;;;;;5052454;28;20430;-68
2022/07/25 00:26:57;;;;;;;11.40;9.10;;;;;;;;;;5052266;28;20033;-68
2022/07/25 00:29:23;;;;;;;15.85;9.05;;;;;;;;;;5052691;28;20490;-68
2022/07/25 00:31:49;;;;;;;14.10;8.98;;;;;;;;;;5052166;28;20025;-68
2022/07/25 00:34:15;;;;;;;13.80;9.63;;;;;;;;;;5051583;28;20518;-67
2022/07/25 00:36:41;;;;;;;14.25;10.20;;;;;;;;;;5051948;28;20067;-68
2022/07/25 00:39:07;;;;;;;11.10;9.40;;;;;;;;;;5051732;28;20116;-69
2022/07/25 00:41:33;;;;;;;10.75;8.70;;;;;;;;;;5052027;28;20025;-67
2022/07/25 00:43:59;;;;;;;11.88;9.40;;;;;;;;;;5051583;28;20035;-69
2022/07/25 00:46:25;;;;;;;13.60;9.88;;;;;;;;;;5051312;28;20028;-68
2022/07/25 00:48:51;;;;;;;17.77;9.68;;;;;;;;;;5051633;28;20029;-66
2022/07/25 00:51:17;;;;;;;11.45;8.70;;;;;;;;;;5050159;28;20036;-66
2022/07/25 00:53:44;;;;;;;11.95;9.93;;;;;;;;;;5052146;28;20025;-68
2022/07/25 00:56:10;;;;;;;11.38;9.10;;;;;;;;;;5051452;28;20565;-66
2022/07/25 00:58:36;;;;;;;12.27;9.52;;;;;;;;;;5051314;28;20459;-68
2022/07/25 01:01:03;;;;;;;12.52;9.45;;;;;;;;;;5051749;28;20057;-68
2022/07/25 01:03:29;;;;;;;10.48;8.60;;;;;;;;;;5050424;28;20436;-67
2022/07/25 01:05:55;;;;;;;12.73;9.30;;;;;;;;;;5051306;28;20057;-68
2022/07/25 01:08:21;;;;;;;10.65;8.90;;;;;;;;;;5051676;28;20061;-66
2022/07/25 01:10:48;;;;;;;15.82;9.65;;;;;;;;;;5052839;28;20036;-67
2022/07/25 01:13:14;;;;;;;13.18;9.57;;;;;;;;;;5051258;28;20383;-67
2022/07/25 01:15:41;;;;;;;14.13;10.98;;;;;;;;;;5050494;28;20489;-68
2022/07/25 01:18:07;;;;;;;11.90;10.20;;;;;;;;;;5050581;28;20064;-68
2022/07/25 01:20:33;;;;;;;11.45;10.20;;;;;;;;;;5049817;28;20025;-67
2022/07/25 01:23:00;;;;;;;14.32;10.50;;;;;;;;;;5050651;28;20071;-68
2022/07/25 01:25:27;;;;;;;11.00;9.80;;;;;;;;;;5050878;28;20475;-67
2022/07/25 01:27:53;;;;;;;14.40;11.32;;;;;;;;;;5050405;28;20336;-68
2022/07/25 01:30:20;;;;;;;14.43;11.43;;;;;;;;;;5050456;28;20569;-67
2022/07/25 01:32:46;;;;;;;15.30;12.25;;;;;;;;;;5050668;28;20048;-68
2022/07/25 01:35:13;;;;;;;17.80;12.27;;;;;;;;;;5050437;28;20099;-68
2022/07/25 01:37:39;;;;;;;16.65;12.02;;;;;;;;;;5049744;28;20509;-68
2022/07/25 01:40:05;;;;;;;14.45;10.98;;;;;;;;;;5049689;28;20096;-68
2022/07/25 01:42:32;;;;;;;15.23;11.18;;;;;;;;;;5049985;28;20553;-67
2022/07/25 01:44:58;;;;;;;15.60;11.55;;;;;;;;;;5049876;28;20064;-68
2022/07/25 01:47:24;;;;;;;24.58;11.55;;;;;;;;;;5049198;28;20033;-67
2022/07/25 01:49:50;;;;;;;13.65;11.70;;;;;;;;;;5049828;28;20406;-67
2022/07/25 01:52:16;;;;;;;16.38;11.93;;;;;;;;;;5049536;28;20574;-67
2022/07/25 01:54:42;;;;;;;16.75;11.60;;;;;;;;;;5049596;28;20321;-68
2022/07/25 01:57:09;;;;;;;15.82;12.15;;;;;;;;;;5049263;28;20025;-67
2022/07/25 01:59:42;;;;;;;13.25;11.63;;;;;;;;;;5049229;28;20439;-67
2022/07/25 02:02:08;;;;;;;15.52;11.18;;;;;;;;;;5049394;28;20091;-67
2022/07/25 02:04:35;;;;;;;16.70;11.32;;;;;;;;;;5049355;28;20056;-68
2022/07/25 02:07:01;;;;;;;15.75;11.55;;;;;;;;;;5049404;28;20478;-68
2022/07/25 02:09:27;;;;;;;17.65;11.02;;;;;;;;;;5049365;28;20033;-68
2022/07/25 02:11:53;;;;;;;17.70;11.73;;;;;;;;;;5047794;28;20029;-67
2022/07/25 02:14:19;;;;;;;21.45;12.07;;;;;;;;;;5049496;28;20086;-67
2022/07/25 02:16:45;;;;;;;18.25;11.43;;;;;;;;;;5049002;28;20537;-67
2022/07/25 02:19:11;;;;;;;21.90;12.07;;;;;;;;;;5049012;28;20029;-68
2022/07/25 02:21:37;;;;;;;14.65;11.23;;;;;;;;;;5049457;28;20546;-68
2022/07/25 02:24:03;;;;;;;14.13;11.73;;;;;;;;;;5048222;28;20506;-67
2022/07/25 02:26:29;;;;;;;14.38;11.45;;;;;;;;;;5049153;28;20028;-68
2022/07/25 02:28:55;;;;;;;13.20;11.60;;;;;;;;;;5050047;28;20033;-67
2022/07/25 02:31:21;;;;;;;17.65;10.70;;;;;;;;;;5049779;28;20048;-67
2022/07/25 02:33:47;;;;;;;16.98;11.68;;;;;;;;;;5050253;28;20029;-67
2022/07/25 02:36:13;;;;;;;16.33;10.90;;;;;;;;;;5053053;28;20520;-67
2022/07/25 02:38:39;;;;;;;14.93;11.23;;;;;;;;;;5053058;28;20029;-67
2022/07/25 02:41:06;;;;;;;14.52;10.45;;;;;;;;;;5051603;28;20470;-69
2022/07/25 02:43:32;;;;;;;13.35;11.57;;;;;;;;;;5053354;28;20021;-68
2022/07/25 02:45:58;;;;;;;14.80;11.45;;;;;;;;;;5053176;28;20029;-67
2022/07/25 02:48:24;;;;;;;16.10;12.23;;;;;;;;;;5053183;28;20035;-67
2022/07/25 02:50:50;;;;;;;15.10;11.77;;;;;;;;;;5052826;28;20521;-67
2022/07/25 02:53:16;;;;;;;16.92;11.48;;;;;;;;;;5053339;28;20056;-67
2022/07/25 02:55:42;;;;;;;14.32;11.48;;;;;;;;;;5052705;28;20024;-67
2022/07/25 02:58:08;;;;;;;15.98;12.25;;;;;;;;;;5052619;28;20132;-68
2022/07/25 03:00:34;;;;;;;17.75;11.98;;;;;;;;;;5052617;28;20104;-68
2022/07/25 03:03:01;;;;;;;15.65;11.75;;;;;;;;;;5052392;28;20485;-68
2022/07/25 03:05:27;;;;;;;15.45;12.73;;;;;;;;;;5051228;28;20029;-68
2022/07/25 03:07:53;;;;;;;19.17;13.02;;;;;;;;;;5052148;28;20047;-68
2022/07/25 03:10:19;;;;;;;15.68;12.55;;;;;;;;;;5052047;28;20108;-68
2022/07/25 03:12:45;;;;;;;18.35;13.18;;;;;;;;;;5052252;28;20106;-68
2022/07/25 03:15:12;;;;;;;17.80;12.95;;;;;;;;;;5052069;28;20029;-66
2022/07/25 03:17:38;;;;;;;19.60;13.02;;;;;;;;;;5051820;28;20044;-68
2022/07/25 03:20:05;;;;;;;19.80;14.02;;;;;;;;;;5051761;28;20029;-68
2022/07/25 03:22:31;;;;;;;19.23;13.20;;;;;;;;;;5051719;28;20487;-67
2022/07/25 03:24:57;;;;;;;17.10;13.20;;;;;;;;;;5052234;28;20116;-68
2022/07/25 03:27:23;;;;;;;16.90;13.80;;;;;;;;;;5050608;28;20167;-67
2022/07/25 03:29:49;;;;;;;16.85;13.82;;;;;;;;;;5051504;28;20490;-67
2022/07/25 03:32:15;;;;;;;15.27;13.63;;;;;;;;;;5050587;28;20029;-68
2022/07/25 03:34:42;;;;;;;22.45;13.88;;;;;;;;;;5052201;28;20549;-67
2022/07/25 03:37:08;;;;;;;18.85;14.10;;;;;;;;;;5051622;28;20040;-68
2022/07/25 03:39:34;;;;;;;22.88;13.77;;;;;;;;;;5051267;28;20390;-68
2022/07/25 03:42:00;;;;;;;21.15;14.68;;;;;;;;;;5051918;28;20021;-67
2022/07/25 03:44:26;;;;;;;19.17;15.15;;;;;;;;;;5051890;28;20136;-68
2022/07/25 03:46:52;;;;;;;24.58;14.52;;;;;;;;;;5051014;28;20497;-68
2022/07/25 03:49:19;;;;;;;17.80;13.82;;;;;;;;;;5052049;28;20025;-67
2022/07/25 03:51:45;;;;;;;20.02;14.82;;;;;;;;;;5051707;28;20466;-69
2022/07/25 03:54:14;;;;;;;17.63;15.25;;;;;;;;;;5051832;28;20033;-67
2022/07/25 03:56:47;;;;;;;20.30;15.32;;;;;;;;;;5051976;28;20384;-67
2022/07/25 03:59:15;;;;;;;19.50;14.50;;;;;;;;;;5051527;28;20150;-67
2022/07/25 04:01:41;;;;;;;21.77;15.27;;;;;;;;;;5051430;28;20325;-67
2022/07/25 04:04:08;;;;;;;21.63;14.50;;;;;;;;;;5051655;28;20017;-67
2022/07/25 04:06:35;;;;;;;33.95;15.32;;;;;;;;;;5051539;28;20186;-67
2022/07/25 04:09:01;;;;;;;24.25;15.07;;;;;;;;;;5051712;28;20029;-68
2022/07/25 04:11:29;;;;;;;22.85;14.43;;;;;;;;;;5051434;28;20491;-68
2022/07/25 04:13:55;;;;;;;27.83;15.30;;;;;;;;;;5051507;28;20056;-68
2022/07/25 04:16:21;;;;;;;19.02;13.80;;;;;;;;;;5050992;28;20494;-67
2022/07/25 04:18:47;;;;;;;23.55;15.25;;;;;;;;;;5051026;28;20039;-67
2022/07/25 04:21:15;;;;;;;18.45;13.93;;;;;;;;;;5032893;28;20024;-67
2022/07/25 04:23:41;;;;;;;17.23;14.23;;;;;;;;;;5031047;28;20026;-67
2022/07/25 04:26:06;;;;;;;20.17;14.52;;;;;;;;;;5030029;28;20028;-67
2022/07/25 04:28:32;;;;;;;17.02;14.05;;;;;;;;;;5031633;28;20429;-67
2022/07/25 04:30:59;;;;;;;20.48;14.52;;;;;;;;;;5031367;28;20045;-67
2022/07/25 04:33:25;;;;;;;21.90;14.02;;;;;;;;;;5031815;28;20111;-68
2022/07/25 04:35:51;;;;;;;32.17;15.00;;;;;;;;;;5031749;28;20040;-67
2022/07/25 04:38:17;;;;;;;32.28;15.23;;;;;;;;;;5031247;28;20033;-67
2022/07/25 04:40:43;;;;;;;30.77;15.32;;;;;;;;;;5031713;28;20052;-68
2022/07/25 04:43:09;;;;;;;31.85;15.70;;;;;;;;;;5031668;28;20387;-67
2022/07/25 04:45:35;;;;;;;21.25;14.60;;;;;;;;;;5030170;28;20032;-68
2022/07/25 04:48:02;;;;;;;18.58;13.48;;;;;;;;;;5030394;28;20033;-67
2022/07/25 04:50:28;;;;;;;17.27;14.60;;;;;;;;;;5031932;28;20085;-68
2022/07/25 04:52:54;;;;;;;19.98;14.85;;;;;;;;;;5032209;28;20475;-68
2022/07/25 04:55:20;;;;;;;19.58;14.82;;;;;;;;;;5031636;28;20073;-67
2022/07/25 04:57:46;;;;;;;21.98;14.40;;;;;;;;;;5030677;28;20030;-67
2022/07/25 05:00:13;;;;;;;16.30;14.20;;;;;;;;;;5032608;28;20079;-67
2022/07/25 05:02:39;;;;;;;23.73;14.93;;;;;;;;;;5031512;28;20037;-68
2022/07/25 05:05:05;;;;;;;21.17;15.65;;;;;;;;;;5032201;28;20025;-68
2022/07/25 05:07:31;;;;;;;22.52;15.23;;;;;;;;;;5032691;28;20045;-68
2022/07/25 05:09:57;;;;;;;21.95;16.17;;;;;;;;;;5032268;28;20129;-67
2022/07/25 05:12:23;;;;;;;22.88;16.00;;;;;;;;;;5031867;28;20033;-68
2022/07/25 05:14:49;;;;;;;20.55;15.85;;;;;;;;;;5031391;28;20479;-68
2022/07/25 05:17:15;;;;;;;20.92;16.60;;;;;;;;;;5032257;28;20053;-68
2022/07/25 05:19:41;;;;;;;23.95;16.60;;;;;;;;;;5037148;28;20085;-68
2022/07/25 05:22:07;;;;;;;24.17;17.05;;;;;;;;;;5052631;28;20045;-68
2022/07/25 05:24:34;;;;;;;21.58;15.48;;;;;;;;;;5051757;28;20029;-67
2022/07/25 05:27:00;;;;;;;19.38;15.65;;;;;;;;;;5052226;28;20051;-67
2022/07/25 05:29:27;;;;;;;20.17;16.00;;;;;;;;;;5052466;28;20523;-69
2022/07/25 05:31:53;;;;;;;18.77;14.90;;;;;;;;;;5052249;28;20100;-66
2022/07/25 05:34:19;;;;;;;20.00;15.70;;;;;;;;;;5051735;28;20075;-69
2022/07/25 05:36:45;;;;;;;18.10;14.93;;;;;;;;;;5052228;28;20045;-67
2022/07/25 05:39:11;;;;;;;25.98;16.15;;;;;;;;;;5051613;28;20047;-67
2022/07/25 05:41:37;;;;;;;24.30;15.73;;;;;;;;;;5051137;28;20070;-68
2022/07/25 05:44:03;;;;;;;20.65;14.13;;;;;;;;;;5051431;28;20021;-68
2022/07/25 05:46:31;;;;;;;20.77;13.65;;;;;;;;;;5051885;28;20035;-68
2022/07/25 05:48:57;;;;;;;18.52;11.82;;;;;;;;;;5050142;28;20032;-68
2022/07/25 05:51:23;;;;;;;14.35;11.57;;;;;;;;;;5050979;28;20029;-68
2022/07/25 05:53:49;;;;;;;18.30;11.32;;;;;;;;;;5052221;28;20025;-68
2022/07/25 05:56:15;;;;;;;18.05;10.02;;;;;;;;;;5051343;28;20509;-68
2022/07/25 05:58:41;;;;;;;11.98;10.10;;;;;;;;;;5049976;28;20061;-68
2022/07/25 06:01:08;;;;;;;11.20;8.10;;;;;;;;;;5051438;28;20079;-67
2022/07/25 06:03:34;;;;;;;11.38;7.13;;;;;;;;;;5051607;28;20029;-66
2022/07/25 06:06:00;;;;;;;10.90;6.18;;;;;;;;;;5051575;28;20358;-67
2022/07/25 06:08:27;;;;;;;9.00;5.38;;;;;;;;;;5051802;28;20371;-67
2022/07/25 06:10:54;;;;;;;6.95;5.07;;;;;;;;;;5055667;28;20071;-67
2022/07/25 06:13:20;;;;;;;13.77;5.55;;;;;;;;;;5055342;28;20033;-67
2022/07/25 06:15:46;;;;;;;10.95;4.95;;;;;;;;;;5054577;28;20083;-67
2022/07/25 06:18:12;;;;;;;10.98;4.70;;;;;;;;;;5053939;28;20475;-67
2022/07/25 06:20:38;;;;;;;11.20;4.00;;;;;;;;;;5055730;28;20475;-67
2022/07/25 06:23:04;;;;;;;6.32;4.00;;;;;;;;;;5055141;28;20109;-68
2022/07/25 06:25:30;;;;;;;19.92;3.50;;;;;;;;;;5054629;28;20075;-67
2022/07/25 06:27:56;;;;;;;12.95;4.18;;;;;;;;;;5055641;28;20575;-67
2022/07/25 06:30:22;;;;;;;8.25;3.40;;;;;;;;;;5053754;28;20052;-67
2022/07/25 06:32:49;;;;;;;6.70;3.42;;;;;;;;;;5056635;28;20025;-66
2022/07/25 06:35:15;;;;;;;4.90;3.03;;;;;;;;;;5057066;28;20029;-67
2022/07/25 06:37:41;;;;;;;7.45;3.35;;;;;;;;;;5054520;28;20486;-68
2022/07/25 06:40:08;;;;;;;14.52;3.78;;;;;;;;;;5055812;28;20025;-68
2022/07/25 06:42:37;;;;;;;7.18;3.38;;;;;;;;;;5055902;28;20025;-68
2022/07/25 06:45:04;;;;;;;5.45;3.22;;;;;;;;;;5055398;28;20025;-69
2022/07/25 06:47:30;;;;;;;8.25;3.47;;;;;;;;;;5055323;28;20047;-67
2022/07/25 06:49:56;;;;;;;5.90;3.67;;;;;;;;;;5055495;28;20029;-67
2022/07/25 06:52:22;;;;;;;9.10;3.80;;;;;;;;;;5055371;28;20131;-66
2022/07/25 06:54:48;;;;;;;7.57;3.80;;;;;;;;;;5053239;28;20076;-68
2022/07/25 06:57:14;;;;;;;10.48;3.95;;;;;;;;;;5054204;28;20037;-68
2022/07/25 06:59:40;;;;;;;7.13;3.95;;;;;;;;;;5055176;28;20101;-67
2022/07/25 07:02:06;;;;;;;6.72;3.95;;;;;;;;;;5054595;28;20041;-67
2022/07/25 07:04:32;;;;;;;9.48;4.20;;;;;;;;;;5054962;28;20037;-67
2022/07/25 07:06:58;;;;;;;11.38;3.78;;;;;;;;;;5054059;28;20079;-68
2022/07/25 07:09:24;;;;;;;9.48;4.40;;;;;;;;;;5054579;28;20033;-66
2022/07/25 07:11:50;;;;;;;10.13;3.92;;;;;;;;;;5054552;28;20040;-68
2022/07/25 07:14:16;;;;;;;10.25;4.38;;;;;;;;;;5054863;28;20032;-67
2022/07/25 07:16:42;;;;;;;8.65;4.18;;;;;;;;;;5054751;28;20502;-68
2022/07/25 07:19:13;;;;;;;10.93;4.05;;;;;;;;;;5053633;28;20056;-68
2022/07/25 07:21:39;;;;;;;7.57;3.60;;;;;;;;;;5034980;28;20072;-68
2022/07/25 07:24:06;;;;;;;10.38;3.40;;;;;;;;;;5033778;28;20041;-66
2022/07/25 07:26:32;;;;;;;8.00;3.30;;;;;;;;;;5034158;28;20477;-68
2022/07/25 07:28:58;;;;;;;8.60;2.95;;;;;;;;;;5034388;28;20064;-67
2022/07/25 07:31:24;;;;;;;7.15;2.75;;;;;;;;;;5034572;28;20117;-66
2022/07/25 07:33:50;;;;;;;5.47;2.67;;;;;;;;;;5033462;28;20136;-67
2022/07/25 07:36:18;;;;;;;7.43;2.30;;;;;;;;;;5034434;28;20053;-69
2022/07/25 07:38:44;;;;;;;4.07;2.22;;;;;;;;;;5034519;28;20056;-68
2022/07/25 07:41:10;;;;;;;8.18;2.30;;;;;;;;;;5034311;28;20025;-68
2022/07/25 07:43:36;;;;;;;5.55;2.03;;;;;;;;;;5032927;28;20017;-67
2022/07/25 07:46:03;;;;;;;3.33;1.50;;;;;;;;;;5033014;28;20315;-68
2022/07/25 07:48:29;;;;;;;4.68;1.60;;;;;;;;;;5034312;28;20143;-68
2022/07/25 07:50:55;;;;;;;6.80;1.98;;;;;;;;;;5033394;28;20040;-66
2022/07/25 07:53:21;;;;;;;5.03;1.60;;;;;;;;;;5033360;28;20082;-66
2022/07/25 07:55:53;;;;;;;3.92;1.63;;;;;;;;;;5033465;28;20026;-66
2022/07/25 07:58:20;;;;;;;5.10;1.83;;;;;;;;;;5032048;28;20034;-67
2022/07/25 08:00:48;;;;;;;6.07;1.60;;;;;;;;;;5032582;28;20022;-69
2022/07/25 08:03:17;;;;;;;8.52;1.42;;;;;;;;;;5032854;28;20021;-68
2022/07/25 08:05:43;;;;;;;8.45;1.50;;;;;;;;;;5032996;28;20028;-68
2022/07/25 08:08:11;;;;;;;4.80;1.60;;;;;;;;;;5032452;28;20122;-67
2022/07/25 08:10:39;;;;;;;8.18;2.10;;;;;;;;;;5032175;28;20120;-68
2022/07/25 08:13:15;;;;;;;5.20;1.48;;;;;;;;;;5032652;28;20386;-68
2022/07/25 08:15:41;;;;;;;4.82;1.75;;;;;;;;;;5032705;28;20522;-70
2022/07/25 08:18:08;;;;;;;7.53;2.10;;;;;;;;;;5032282;28;20026;-68
2022/07/25 08:20:34;;;;;;;7.03;1.60;;;;;;;;;;5044337;28;20018;-68
2022/07/25 08:23:00;;;;;;;6.18;1.60;;;;;;;;;;5052544;28;20493;-68
2022/07/25 08:25:26;;;;;;;8.10;2.20;;;;;;;;;;5051792;28;20016;-67
2022/07/25 08:27:52;;;;;;;6.35;1.70;;;;;;;;;;5051466;28;20033;-67
2022/07/25 08:30:18;;;;;;;12.80;2.10;;;;;;;;;;5052044;28;20065;-68
2022/07/25 08:32:47;;;;;;;8.20;2.10;;;;;;;;;;5051199;28;20029;-67
2022/07/25 08:35:13;;;;;;;9.07;2.08;;;;;;;;;;5051591;28;20482;-68
2022/07/25 08:37:39;;;;;;;7.45;2.08;;;;;;;;;;5051342;28;20465;-67
2022/07/25 08:40:05;;;;;;;12.50;2.28;;;;;;;;;;5039366;28;20519;-67
2022/07/25 08:42:33;;;;;;;7.78;2.05;;;;;;;;;;5051486;28;20029;-67
2022/07/25 08:44:59;;;;;;;10.30;1.90;;;;;;;;;;5046599;28;20025;-69
2022/07/25 08:47:27;;;;;;;8.25;2.28;;;;;;;;;;5031530;28;20625;-69
2022/07/25 08:49:54;;;;;;;11.30;1.70;;;;;;;;;;5031127;28;20068;-67
2022/07/25 08:52:21;;;;;;;10.68;2.35;;;;;;;;;;5031334;28;20041;-69
2022/07/25 08:54:47;;;;;;;23.55;3.10;;;;;;;;;;5032204;28;20491;-69
2022/07/25 08:57:13;;;;;;;16.77;2.70;;;;;;;;;;5031810;28;20022;-68
2022/07/25 08:59:39;;;;;;;10.90;2.78;;;;;;;;;;5031717;28;20041;-67
2022/07/25 09:02:07;;;;;;;10.38;3.15;;;;;;;;;;5030936;28;20052;-68
2022/07/25 09:04:34;;;;;;;9.77;2.97;;;;;;;;;;5031601;28;20033;-68
2022/07/25 09:07:03;;;;;;;13.43;2.95;;;;;;;;;;5031842;28;20104;-68
2022/07/25 09:09:33;;;;;;;11.57;2.92;;;;;;;;;;5030256;28;20492;-68
2022/07/25 09:11:59;;;;;;;9.88;3.13;;;;;;;;;;5031566;28;20068;-67
2022/07/25 09:14:25;;;;;;;8.88;2.67;;;;;;;;;;5031892;28;20022;-68
2022/07/25 09:16:52;;;;;;;7.30;2.60;;;;;;;;;;5031059;28;20060;-68
2022/07/25 09:19:22;;;;;;;11.45;2.83;;;;;;;;;;5030783;28;20088;-67
2022/07/25 09:21:59;;;;;;;8.98;3.03;;;;;;;;;;5030806;28;20036;-68
2022/07/25 09:24:25;;;;;;;8.52;2.92;;;;;;;;;;5030678;28;20021;-68
2022/07/25 09:26:53;;;;;;;7.63;2.47;;;;;;;;;;5030747;28;20087;-68
2022/07/25 09:29:23;;;;;;;11.02;2.33;;;;;;;;;;5030054;28;20051;-68
2022/07/25 09:31:49;;;;;;;;;;;;;;;;;;5030862;28;20432;-69
2022/07/25 09:34:34;;;;;;;10.75;2.38;;;;;;;;;;5030580;28;19992;-68
2022/07/25 09:37:01;;;;;;;9.48;2.00;;;;;;;;;;5030472;28;20025;-68
2022/07/25 09:39:35;;;;;;;7.57;2.40;;;;;;;;;;5030363;28;20040;-68
2022/07/25 09:42:01;;;;;;;6.40;1.98;;;;;;;;;;5029952;28;20431;-68
2022/07/25 09:44:30;;;;;;;7.47;2.05;;;;;;;;;;5032128;28;20059;-68
2022/07/25 09:47:09;;;;;;;9.60;2.50;;;;;;;;;;5035062;28;20072;-68
2022/07/25 09:49:39;;;;;;;6.20;2.00;;;;;;;;;;5034228;28;20033;-67
2022/07/25 09:52:05;;;;;;;6.97;2.08;;;;;;;;;;5034365;28;20033;-68
2022/07/25 09:54:32;;;;;;;7.50;2.15;;;;;;;;;;5033705;28;20029;-68
2022/07/25 09:56:58;;;;;;;5.97;1.90;;;;;;;;;;5034164;28;20033;-68
2022/07/25 09:59:24;;;;;;;7.82;2.00;;;;;;;;;;5033331;28;20483;-66
2022/07/25 10:02:04;;;;;;;8.65;2.20;;;;;;;;;;5033399;28;20146;-68
2022/07/25 10:04:36;;;;;;;10.48;2.13;;;;;;;;;;5033753;28;20025;-67
2022/07/25 10:07:08;;;;;;;8.90;2.10;;;;;;;;;;5033481;28;20029;-68
2022/07/25 10:09:40;;;;;;;9.60;2.20;;;;;;;;;;5033445;28;20139;-67
2022/07/25 10:12:10;;;;;;;8.52;2.83;;;;;;;;;;5033874;28;20025;-68
2022/07/25 10:14:36;;;;;;;7.20;2.03;;;;;;;;;;5032785;28;20079;-68
2022/07/25 10:17:03;;;;;;;9.27;2.20;;;;;;;;;;5033774;28;20041;-69
2022/07/25 10:19:49;;;;;;;10.70;2.08;;;;;;;;;;5033822;28;20076;-69
2022/07/25 10:22:15;;;;;;;6.68;2.33;;;;;;;;;;5033429;28;20479;-69
2022/07/25 10:24:45;;;;;;;9.45;2.40;;;;;;;;;;5034009;28;20065;-69
2022/07/25 10:27:21;;;;;;;10.55;2.75;;;;;;;;;;5033500;28;20022;-69
2022/07/25 10:29:49;;;;;;;8.80;2.45;;;;;;;;;;5033959;28;20462;-69
2022/07/25 10:32:16;;;;;;;11.18;2.38;;;;;;;;;;5033165;28;20030;-69
2022/07/25 10:34:51;;;;;;;6.85;2.17;;;;;;;;;;5033788;28;20116;-68
2022/07/25 10:37:17;;;;;;;6.20;2.03;;;;;;;;;;5034195;28;20163;-69
2022/07/25 10:39:44;;;;;;;9.60;2.40;;;;;;;;;;5032399;28;20044;-68
2022/07/25 10:42:14;;;;;;;9.85;2.60;;;;;;;;;;5033039;28;20718;-67
2022/07/25 10:44:44;;;;;;;7.28;2.03;;;;;;;;;;5033531;28;20037;-68
2022/07/25 10:47:11;;;;;;;8.93;2.80;;;;;;;;;;5033645;28;20380;-69
2022/07/25 10:49:40;;;;;;;9.95;2.28;;;;;;;;;;5033796;28;20029;-68
2022/07/25 10:52:06;;;;;;;9.35;2.40;;;;;;;;;;5033431;28;20021;-68
2022/07/25 10:54:37;;;;;;;16.40;2.55;;;;;;;;;;5032568;28;20487;-68
2022/07/25 10:57:04;;;;;;;8.20;2.53;;;;;;;;;;5031597;28;20049;-67
2022/07/25 10:59:32;;;;;;;7.78;2.17;;;;;;;;;;5033159;28;20033;-68
2022/07/25 11:01:58;;;;;;;11.35;2.90;;;;;;;;;;5032719;28;20115;-68
2022/07/25 11:04:24;;;;;;;8.80;2.05;;;;;;;;;;5032983;28;20053;-69
2022/07/25 11:06:50;;;;;;;9.68;2.60;;;;;;;;;;5032857;28;20309;-68
2022/07/25 11:09:26;;;;;;;9.95;2.65;;;;;;;;;;5032624;28;20065;-68
2022/07/25 11:11:54;;;;;;;10.75;3.20;;;;;;;;;;5032229;28;20087;-68
2022/07/25 11:14:23;;;;;;;10.57;2.90;;;;;;;;;;5032357;28;20499;-68
2022/07/25 11:16:50;;;;;;;12.85;3.13;;;;;;;;;;5032282;28;20052;-68
2022/07/25 11:19:20;;;;;;;10.70;3.50;;;;;;;;;;5032369;28;20026;-68
2022/07/25 11:21:50;;;;;;;10.65;3.50;;;;;;;;;;5032205;28;20124;-68
2022/07/25 11:24:16;;;;;;;10.35;3.67;;;;;;;;;;5032562;28;20030;-68
2022/07/25 11:26:46;;;;;;;16.05;3.67;;;;;;;;;;5031092;28;20477;-68
2022/07/25 11:29:19;;;;;;;11.52;3.35;;;;;;;;;;5032396;28;20031;-68
2022/07/25 11:31:54;;;;;;;14.35;3.80;;;;;;;;;;5032589;28;20459;-69
2022/07/25 11:34:25;;;;;;;16.92;3.72;;;;;;;;;;5032136;28;20399;-67
2022/07/25 11:36:54;;;;;;;16.08;3.95;;;;;;;;;;5032168;28;20033;-69
2022/07/25 11:39:20;;;;;;;12.02;3.63;;;;;;;;;;5032205;28;20070;-69
2022/07/25 11:41:46;;;;;;;13.05;3.72;;;;;;;;;;5030839;28;20471;-68
2022/07/25 11:44:12;;;;;;;14.75;3.40;;;;;;;;;;5032169;28;20036;-69
2022/07/25 11:46:45;;;;;;;15.20;3.67;;;;;;;;;;5030991;28;20029;-67
2022/07/25 11:49:11;;;;;;;15.52;3.65;;;;;;;;;;5032226;28;20053;-68
2022/07/25 11:51:38;;;;;;;14.30;3.20;;;;;;;;;;5032145;28;20030;-68
2022/07/25 11:54:09;;;;;;;15.68;4.05;;;;;;;;;;5032403;28;20029;-68
2022/07/25 11:56:38;;;;;;;15.15;3.53;;;;;;;;;;5032451;28;20403;-68
2022/07/25 11:59:06;;;;;;;17.77;3.78;;;;;;;;;;5032350;28;20205;-68
2022/07/25 12:01:40;;;;;;;15.80;3.63;;;;;;;;;;5030363;28;20050;-68
2022/07/25 12:04:17;;;;;;;12.90;3.35;;;;;;;;;;5032190;28;20030;-68
2022/07/25 12:06:44;;;;;;;11.23;3.33;;;;;;;;;;5031324;28;20021;-68
2022/07/25 12:09:20;;;;;;;17.00;3.65;;;;;;;;;;5030603;28;20029;-68
2022/07/25 12:11:46;;;;;;;11.95;3.67;;;;;;;;;;5031944;28;20036;-68
2022/07/25 12:14:13;;;;;;;12.23;3.53;;;;;;;;;;5031742;28;20112;-68
2022/07/25 12:16:39;;;;;;;14.13;3.47;;;;;;;;;;5032360;28;20021;-68
2022/07/25 12:19:08;;;;;;;15.77;3.40;;;;;;;;;;5031858;28;20497;-68
2022/07/25 12:21:34;;;;;;;13.00;2.87;;;;;;;;;;5031870;28;20049;-68
2022/07/25 12:24:00;;;;;;;12.80;3.38;;;;;;;;;;5031285;28;20021;-68
2022/07/25 12:26:26;;;;;;;13.00;3.60;;;;;;;;;;5031723;28;20072;-69
2022/07/25 12:28:52;;;;;;;14.52;3.20;;;;;;;;;;5031480;28;20049;-68
2022/07/25 12:31:18;;;;;;;11.27;2.83;;;;;;;;;;5030091;28;20044;-68
2022/07/25 12:33:44;;;;;;;14.43;3.58;;;;;;;;;;5031255;28;20487;-69
2022/07/25 12:36:14;;;;;;;14.77;3.17;;;;;;;;;;5030354;28;20175;-68
2022/07/25 12:38:40;;;;;;;8.30;2.83;;;;;;;;;;5031719;28;20079;-68
2022/07/25 12:41:06;;;;;;;14.82;3.25;;;;;;;;;;5031261;28;20041;-69
2022/07/25 12:43:32;;;;;;;12.77;2.80;;;;;;;;;;5030944;28;20036;-67
2022/07/25 12:45:58;;;;;;;10.00;2.65;;;;;;;;;;5031115;28;20022;-67
2022/07/25 12:48:24;;;;;;;7.28;2.35;;;;;;;;;;5029561;28;20071;-67
2022/07/25 12:50:50;;;;;;;13.85;2.80;;;;;;;;;;5030757;28;20041;-68
2022/07/25 12:53:16;;;;;;;10.23;2.15;;;;;;;;;;5030198;28;20036;-68
2022/07/25 12:55:42;;;;;;;67.55;5.13;;;;;;;;;;5029327;28;20501;-68
2022/07/25 12:58:08;;;;;;;10.45;2.80;;;;;;;;;;5030678;28;20029;-68
2022/07/25 13:00:35;;;;;;;17.02;2.47;;;;;;;;;;5030391;28;20063;-68
2022/07/25 13:03:01;;;;;;;25.23;3.28;;;;;;;;;;5029658;28;20103;-68
2022/07/25 13:05:28;;;;;;;25.55;3.40;;;;;;;;;;5030813;28;20133;-68
2022/07/25 13:07:54;;;;;;;13.43;3.08;;;;;;;;;;5031219;28;20044;-69
2022/07/25 13:10:20;;;;;;;18.83;3.42;;;;;;;;;;5030606;28;20048;-67
2022/07/25 13:12:47;;;;;;;16.58;3.53;;;;;;;;;;5031384;28;20033;-68
2022/07/25 13:15:13;;;;;;;16.13;4.05;;;;;;;;;;5030829;28;20506;-68
2022/07/25 13:17:39;;;;;;;12.98;3.42;;;;;;;;;;5030882;28;20044;-68
2022/07/25 13:20:05;;;;;;;24.25;3.45;;;;;;;;;;5032256;28;20022;-68
2022/07/25 13:22:32;;;;;;;20.65;3.17;;;;;;;;;;5031688;28;20037;-68
2022/07/25 13:24:58;;;;;;;17.33;3.17;;;;;;;;;;5031985;28;20570;-68
2022/07/25 13:27:24;;;;;;;18.23;3.00;;;;;;;;;;5032126;28;20116;-69
2022/07/25 13:29:53;;;;;;;20.80;3.25;;;;;;;;;;5033071;28;20041;-70
2022/07/25 13:32:20;;;;;;;12.05;2.40;;;;;;;;;;5032754;28;20108;-68
2022/07/25 13:34:46;;;;;;;13.55;2.40;;;;;;;;;;5030842;28;20087;-69
2022/07/25 13:37:12;;;;;;;8.38;1.98;;;;;;;;;;5031893;28;20039;-69
2022/07/25 13:39:40;;;;;;;10.85;2.45;;;;;;;;;;5033040;28;20105;-69
2022/07/25 13:42:06;;;;;;;13.30;2.30;;;;;;;;;;5033636;28;20032;-69
2022/07/25 13:44:32;;;;;;;20.25;2.97;;;;;;;;;;5032897;28;20497;-70
2022/07/25 13:46:58;;;;;;;10.40;2.38;;;;;;;;;;5034242;28;20085;-70
2022/07/25 13:49:25;;;;;;;10.88;2.35;;;;;;;;;;5034538;28;20027;-70
2022/07/25 13:51:51;;;;;;;13.57;2.30;;;;;;;;;;5032839;28;20087;-68
2022/07/25 13:54:17;;;;;;;10.75;2.15;;;;;;;;;;5033016;28;20025;-69
2022/07/25 13:56:43;;;;;;;14.95;2.72;;;;;;;;;;5033703;28;20041;-68
2022/07/25 13:59:09;;;;;;;13.50;2.60;;;;;;;;;;5032535;28;20337;-69
2022/07/25 14:01:35;;;;;;;18.20;2.60;;;;;;;;;;5033313;28;20041;-68
2022/07/25 14:04:01;;;;;;;11.98;2.88;;;;;;;;;;5033129;28;20071;-68
2022/07/25 14:06:27;;;;;;;11.07;2.88;;;;;;;;;;5032833;28;20123;-67
2022/07/25 14:08:53;;;;;;;14.05;2.58;;;;;;;;;;5032352;28;20026;-68
2022/07/25 14:11:19;;;;;;;13.52;2.60;;;;;;;;;;5032867;28;20026;-68
2022/07/25 14:13:45;;;;;;;9.73;2.40;;;;;;;;;;5031468;28;20394;-68
2022/07/25 14:16:17;;;;;;;10.95;2.38;;;;;;;;;;5031084;28;20037;-68
2022/07/25 14:18:44;;;;;;;12.00;2.45;;;;;;;;;;5032849;28;20033;-68
2022/07/25 14:21:09;;;;;;;10.27;2.30;;;;;;;;;;5032607;28;20025;-67
2022/07/25 14:23:35;;;;;;;21.13;2.30;;;;;;;;;;5033521;28;20471;-68
2022/07/25 14:26:02;;;;;;;10.38;2.00;;;;;;;;;;5032061;28;20037;-68